sensor_id;sensor_type;location;lat;lon;timestamp;pressure;altitude;pressure_sealevel;temperature;humidity
50632;BME280;49583;45.590;-122.498;2024-02-28T00:00:49;101536.02;;;6.88;79.66
50632;BME280;49583;45.590;-122.498;2024-02-28T00:03:24;101530.73;;;6.86;79.98
50632;BME280;49583;45.590;-122.498;2024-02-28T00:05:37;101524.79;;;6.86;79.96
50632;BME280;49583;45.590;-122.498;2024-02-28T00:07:53;101526.81;;;6.86;80.03
50632;BME280;49583;45.590;-122.498;2024-02-28T00:10:18;101521.98;;;6.85;80.15
50632;BME280;49583;45.590;-122.498;2024-02-28T00:12:51;101521.27;;;6.85;80.12
50632;BME280;49583;45.590;-122.498;2024-02-28T00:15:08;101517.38;;;6.84;80.13
50632;BME280;49583;45.590;-122.498;2024-02-28T00:17:23;101510.48;;;6.81;80.32
50632;BME280;49583;45.590;-122.498;2024-02-28T00:19:47;101503.51;;;6.83;80.28
50632;BME280;49583;45.590;-122.498;2024-02-28T00:22:00;101495.78;;;6.83;80.10
50632;BME280;49583;45.590;-122.498;2024-02-28T00:24:24;101493.33;;;6.83;80.35
50632;BME280;49583;45.590;-122.498;2024-02-28T00:26:39;101489.52;;;6.83;80.29
50632;BME280;49583;45.590;-122.498;2024-02-28T00:28:55;101488.75;;;6.84;80.33
50632;BME280;49583;45.590;-122.498;2024-02-28T00:31:08;101485.73;;;6.84;80.32
50632;BME280;49583;45.590;-122.498;2024-02-28T00:33:31;101479.00;;;6.83;80.36
50632;BME280;49583;45.590;-122.498;2024-02-28T00:36:04;101481.38;;;6.84;80.33
50632;BME280;49583;45.590;-122.498;2024-02-28T00:38:27;101480.11;;;6.85;80.41
50632;BME280;49583;45.590;-122.498;2024-02-28T00:40:40;101475.23;;;6.82;80.46
50632;BME280;49583;45.590;-122.498;2024-02-28T00:43:03;101468.34;;;6.81;80.66
50632;BME280;49583;45.590;-122.498;2024-02-28T00:45:19;101471.23;;;6.83;80.59
50632;BME280;49583;45.590;-122.498;2024-02-28T00:47:35;101471.80;;;6.82;80.61
50632;BME280;49583;45.590;-122.498;2024-02-28T00:49:51;101467.33;;;6.82;80.67
50632;BME280;49583;45.590;-122.498;2024-02-28T00:52:08;101465.46;;;6.83;80.79
50632;BME280;49583;45.590;-122.498;2024-02-28T00:54:32;101465.52;;;6.83;80.80
50632;BME280;49583;45.590;-122.498;2024-02-28T00:56:46;101464.88;;;6.82;80.92
50632;BME280;49583;45.590;-122.498;2024-02-28T00:58:59;101461.20;;;6.82;80.96
50632;BME280;49583;45.590;-122.498;2024-02-28T01:01:12;101461.15;;;6.80;80.87
50632;BME280;49583;45.590;-122.498;2024-02-28T01:03:25;101458.39;;;6.80;81.04
50632;BME280;49583;45.590;-122.498;2024-02-28T01:05:40;101457.08;;;6.80;81.05
50632;BME280;49583;45.590;-122.498;2024-02-28T01:07:54;101455.48;;;6.78;81.18
50632;BME280;49583;45.590;-122.498;2024-02-28T01:10:11;101457.16;;;6.78;80.99
50632;BME280;49583;45.590;-122.498;2024-02-28T01:12:25;101451.84;;;6.78;81.19
50632;BME280;49583;45.590;-122.498;2024-02-28T01:14:38;101448.89;;;6.78;81.11
50632;BME280;49583;45.590;-122.498;2024-02-28T01:17:02;101443.07;;;6.78;81.20
50632;BME280;49583;45.590;-122.498;2024-02-28T01:19:26;101438.59;;;6.79;81.12
50632;BME280;49583;45.590;-122.498;2024-02-28T01:21:59;101439.48;;;6.80;81.09
50632;BME280;49583;45.590;-122.498;2024-02-28T01:24:22;101440.42;;;6.80;81.05
50632;BME280;49583;45.590;-122.498;2024-02-28T01:26:35;101436.90;;;6.81;80.98
50632;BME280;49583;45.590;-122.498;2024-02-28T01:28:48;101438.02;;;6.81;81.16
50632;BME280;49583;45.590;-122.498;2024-02-28T01:31:01;101432.81;;;6.82;80.92
50632;BME280;49583;45.590;-122.498;2024-02-28T01:33:14;101434.17;;;6.84;80.98
50632;BME280;49583;45.590;-122.498;2024-02-28T01:35:30;101431.20;;;6.85;81.11
50632;BME280;49583;45.590;-122.498;2024-02-28T01:37:52;101429.23;;;6.86;81.07
50632;BME280;49583;45.590;-122.498;2024-02-28T01:40:07;101430.03;;;6.87;81.17
50632;BME280;49583;45.590;-122.498;2024-02-28T01:42:21;101428.48;;;6.89;81.12
50632;BME280;49583;45.590;-122.498;2024-02-28T01:44:33;101427.05;;;6.90;81.11
50632;BME280;49583;45.590;-122.498;2024-02-28T01:46:53;101423.02;;;6.90;81.11
50632;BME280;49583;45.590;-122.498;2024-02-28T01:49:08;101420.71;;;6.92;81.08
50632;BME280;49583;45.590;-122.498;2024-02-28T01:51:22;101420.60;;;6.94;80.94
50632;BME280;49583;45.590;-122.498;2024-02-28T01:53:40;101418.56;;;6.96;80.81
50632;BME280;49583;45.590;-122.498;2024-02-28T01:56:04;101416.00;;;6.96;80.87
50632;BME280;49583;45.590;-122.498;2024-02-28T01:58:27;101412.68;;;6.97;80.75
50632;BME280;49583;45.590;-122.498;2024-02-28T02:00:43;101411.98;;;6.97;80.91
50632;BME280;49583;45.590;-122.498;2024-02-28T02:03:03;101411.76;;;6.99;80.71
50632;BME280;49583;45.590;-122.498;2024-02-28T02:05:19;101406.16;;;7.00;80.72
50632;BME280;49583;45.590;-122.498;2024-02-28T02:07:43;101395.23;;;7.00;80.57
50632;BME280;49583;45.590;-122.498;2024-02-28T02:10:00;101394.64;;;7.02;80.73
50632;BME280;49583;45.590;-122.498;2024-02-28T02:12:13;101397.39;;;7.06;80.65
50632;BME280;49583;45.590;-122.498;2024-02-28T02:14:37;101398.20;;;7.08;80.54
50632;BME280;49583;45.590;-122.498;2024-02-28T02:17:09;101395.94;;;7.08;80.50
50632;BME280;49583;45.590;-122.498;2024-02-28T02:19:32;101394.09;;;7.11;80.24
50632;BME280;49583;45.590;-122.498;2024-02-28T02:22:08;101396.84;;;7.12;80.25
50632;BME280;49583;45.590;-122.498;2024-02-28T02:24:41;101389.96;;;7.13;80.21
50632;BME280;49583;45.590;-122.498;2024-02-28T02:26:57;101392.11;;;7.13;80.16
50632;BME280;49583;45.590;-122.498;2024-02-28T02:29:11;101387.59;;;7.13;80.02
50632;BME280;49583;45.590;-122.498;2024-02-28T02:31:44;101391.25;;;7.14;80.04
50632;BME280;49583;45.590;-122.498;2024-02-28T02:34:08;101391.73;;;7.14;79.98
50632;BME280;49583;45.590;-122.498;2024-02-28T02:36:30;101391.28;;;7.15;79.91
50632;BME280;49583;45.590;-122.498;2024-02-28T02:38:54;101384.63;;;7.15;79.80
50632;BME280;49583;45.590;-122.498;2024-02-28T02:41:10;101384.79;;;7.16;79.85
50632;BME280;49583;45.590;-122.498;2024-02-28T02:43:43;101379.15;;;7.17;79.88
50632;BME280;49583;45.590;-122.498;2024-02-28T02:46:17;101373.09;;;7.17;79.82
50632;BME280;49583;45.590;-122.498;2024-02-28T02:48:31;101372.75;;;7.18;79.84
50632;BME280;49583;45.590;-122.498;2024-02-28T02:50:47;101369.25;;;7.18;79.75
50632;BME280;49583;45.590;-122.498;2024-02-28T02:53:21;101360.31;;;7.18;79.73
50632;BME280;49583;45.590;-122.498;2024-02-28T02:55:54;101367.17;;;7.20;79.61
50632;BME280;49583;45.590;-122.498;2024-02-28T02:58:07;101366.96;;;7.21;79.46
50632;BME280;49583;45.590;-122.498;2024-02-28T03:00:23;101363.15;;;7.23;79.40
50632;BME280;49583;45.590;-122.498;2024-02-28T03:02:36;101354.25;;;7.23;79.44
50632;BME280;49583;45.590;-122.498;2024-02-28T03:04:50;101357.42;;;7.25;79.22
50632;BME280;49583;45.590;-122.498;2024-02-28T03:07:03;101348.71;;;7.23;79.04
50632;BME280;49583;45.590;-122.498;2024-02-28T03:09:26;101352.88;;;7.26;78.97
50632;BME280;49583;45.590;-122.498;2024-02-28T03:11:39;101347.72;;;7.27;79.03
50632;BME280;49583;45.590;-122.498;2024-02-28T03:14:12;101344.71;;;7.27;78.86
50632;BME280;49583;45.590;-122.498;2024-02-28T03:16:28;101340.89;;;7.27;78.83
50632;BME280;49583;45.590;-122.498;2024-02-28T03:18:42;101338.18;;;7.28;78.77
50632;BME280;49583;45.590;-122.498;2024-02-28T03:20:54;101338.89;;;7.28;78.67
50632;BME280;49583;45.590;-122.498;2024-02-28T03:23:28;101335.95;;;7.28;78.81
50632;BME280;49583;45.590;-122.498;2024-02-28T03:25:52;101330.48;;;7.28;78.56
50632;BME280;49583;45.590;-122.498;2024-02-28T03:28:15;101331.29;;;7.29;78.60
50632;BME280;49583;45.590;-122.498;2024-02-28T03:30:27;101326.70;;;7.29;78.61
50632;BME280;49583;45.590;-122.498;2024-02-28T03:32:40;101326.98;;;7.30;78.74
50632;BME280;49583;45.590;-122.498;2024-02-28T03:34:53;101323.35;;;7.30;78.62
50632;BME280;49583;45.590;-122.498;2024-02-28T03:37:06;101324.25;;;7.31;78.51
50632;BME280;49583;45.590;-122.498;2024-02-28T03:39:19;101324.55;;;7.32;78.56
50632;BME280;49583;45.590;-122.498;2024-02-28T03:41:32;101326.12;;;7.33;78.36
50632;BME280;49583;45.590;-122.498;2024-02-28T03:43:44;101316.78;;;7.33;78.25
50632;BME280;49583;45.590;-122.498;2024-02-28T03:45:57;101315.06;;;7.34;78.22
50632;BME280;49583;45.590;-122.498;2024-02-28T03:48:10;101311.12;;;7.32;78.13
50632;BME280;49583;45.590;-122.498;2024-02-28T03:50:23;101311.59;;;7.35;78.12
50632;BME280;49583;45.590;-122.498;2024-02-28T03:52:36;101310.08;;;7.37;78.32
50632;BME280;49583;45.590;-122.498;2024-02-28T03:54:49;101315.02;;;7.37;78.19
50632;BME280;49583;45.590;-122.498;2024-02-28T03:57:02;101308.25;;;7.36;78.04
50632;BME280;49583;45.590;-122.498;2024-02-28T03:59:14;101308.25;;;7.36;78.02
50632;BME280;49583;45.590;-122.498;2024-02-28T04:01:27;101300.36;;;7.35;77.82
50632;BME280;49583;45.590;-122.498;2024-02-28T04:03:40;101305.19;;;7.35;77.97
50632;BME280;49583;45.590;-122.498;2024-02-28T04:05:53;101310.95;;;7.35;77.63
50632;BME280;49583;45.590;-122.498;2024-02-28T04:08:06;101303.89;;;7.36;77.86
50632;BME280;49583;45.590;-122.498;2024-02-28T04:10:19;101304.52;;;7.36;77.59
50632;BME280;49583;45.590;-122.498;2024-02-28T04:12:31;101298.66;;;7.38;77.66
50632;BME280;49583;45.590;-122.498;2024-02-28T04:14:44;101300.48;;;7.38;77.77
50632;BME280;49583;45.590;-122.498;2024-02-28T04:16:57;101297.52;;;7.39;77.94
50632;BME280;49583;45.590;-122.498;2024-02-28T04:19:09;101306.71;;;7.40;77.90
50632;BME280;49583;45.590;-122.498;2024-02-28T04:21:22;101296.84;;;7.38;77.63
50632;BME280;49583;45.590;-122.498;2024-02-28T04:23:35;101295.36;;;7.39;77.83
50632;BME280;49583;45.590;-122.498;2024-02-28T04:25:48;101307.31;;;7.38;77.77
50632;BME280;49583;45.590;-122.498;2024-02-28T04:28:01;101295.59;;;7.37;77.79
50632;BME280;49583;45.590;-122.498;2024-02-28T04:30:14;101299.02;;;7.37;77.87
50632;BME280;49583;45.590;-122.498;2024-02-28T04:32:28;101297.23;;;7.35;77.80
50632;BME280;49583;45.590;-122.498;2024-02-28T04:34:40;101300.71;;;7.36;77.78
50632;BME280;49583;45.590;-122.498;2024-02-28T04:36:53;101298.91;;;7.36;77.92
50632;BME280;49583;45.590;-122.498;2024-02-28T04:39:05;101294.94;;;7.36;77.90
50632;BME280;49583;45.590;-122.498;2024-02-28T04:41:19;101292.66;;;7.35;77.83
50632;BME280;49583;45.590;-122.498;2024-02-28T04:43:31;101292.21;;;7.36;77.77
50632;BME280;49583;45.590;-122.498;2024-02-28T04:45:44;101289.11;;;7.36;77.92
50632;BME280;49583;45.590;-122.498;2024-02-28T04:47:56;101291.23;;;7.37;77.87
50632;BME280;49583;45.590;-122.498;2024-02-28T04:50:10;101291.58;;;7.38;77.71
50632;BME280;49583;45.590;-122.498;2024-02-28T04:52:23;101292.12;;;7.38;77.81
50632;BME280;49583;45.590;-122.498;2024-02-28T04:54:39;101296.97;;;7.40;77.84
50632;BME280;49583;45.590;-122.498;2024-02-28T04:56:52;101289.21;;;7.40;77.71
50632;BME280;49583;45.590;-122.498;2024-02-28T04:59:05;101287.94;;;7.41;77.76
50632;BME280;49583;45.590;-122.498;2024-02-28T05:01:19;101292.84;;;7.41;77.75
50632;BME280;49583;45.590;-122.498;2024-02-28T05:03:33;101295.15;;;7.42;77.64
50632;BME280;49583;45.590;-122.498;2024-02-28T05:05:46;101296.52;;;7.42;77.60
50632;BME280;49583;45.590;-122.498;2024-02-28T05:07:58;101295.27;;;7.43;77.37
50632;BME280;49583;45.590;-122.498;2024-02-28T05:10:12;101284.03;;;7.45;77.30
50632;BME280;49583;45.590;-122.498;2024-02-28T05:12:24;101285.29;;;7.47;77.43
50632;BME280;49583;45.590;-122.498;2024-02-28T05:14:37;101285.83;;;7.48;77.24
50632;BME280;49583;45.590;-122.498;2024-02-28T05:16:51;101289.50;;;7.50;77.10
50632;BME280;49583;45.590;-122.498;2024-02-28T05:19:04;101282.61;;;7.51;77.25
50632;BME280;49583;45.590;-122.498;2024-02-28T05:21:16;101289.76;;;7.53;77.06
50632;BME280;49583;45.590;-122.498;2024-02-28T05:23:30;101285.30;;;7.54;76.88
50632;BME280;49583;45.590;-122.498;2024-02-28T05:25:43;101295.34;;;7.56;76.83
50632;BME280;49583;45.590;-122.498;2024-02-28T05:27:56;101284.89;;;7.57;76.62
50632;BME280;49583;45.590;-122.498;2024-02-28T05:30:10;101282.54;;;7.59;76.55
50632;BME280;49583;45.590;-122.498;2024-02-28T05:32:23;101282.55;;;7.59;76.33
50632;BME280;49583;45.590;-122.498;2024-02-28T05:34:36;101283.30;;;7.60;75.94
50632;BME280;49583;45.590;-122.498;2024-02-28T05:36:50;101283.27;;;7.61;76.09
50632;BME280;49583;45.590;-122.498;2024-02-28T05:39:03;101272.63;;;7.60;75.77
50632;BME280;49583;45.590;-122.498;2024-02-28T05:41:17;101279.06;;;7.61;75.81
50632;BME280;49583;45.590;-122.498;2024-02-28T05:43:30;101275.73;;;7.61;76.06
50632;BME280;49583;45.590;-122.498;2024-02-28T05:45:43;101269.58;;;7.60;75.93
50632;BME280;49583;45.590;-122.498;2024-02-28T05:47:55;101274.99;;;7.62;75.98
50632;BME280;49583;45.590;-122.498;2024-02-28T05:50:09;101273.77;;;7.63;75.72
50632;BME280;49583;45.590;-122.498;2024-02-28T05:52:23;101273.49;;;7.62;75.61
50632;BME280;49583;45.590;-122.498;2024-02-28T05:54:36;101269.55;;;7.64;75.71
50632;BME280;49583;45.590;-122.498;2024-02-28T05:56:49;101276.80;;;7.66;75.81
50632;BME280;49583;45.590;-122.498;2024-02-28T05:59:03;101272.06;;;7.67;75.54
50632;BME280;49583;45.590;-122.498;2024-02-28T06:01:17;101269.46;;;7.68;75.36
50632;BME280;49583;45.590;-122.498;2024-02-28T06:03:31;101264.98;;;7.68;75.44
50632;BME280;49583;45.590;-122.498;2024-02-28T06:05:44;101267.50;;;7.69;75.28
50632;BME280;49583;45.590;-122.498;2024-02-28T06:07:57;101265.52;;;7.70;75.29
50632;BME280;49583;45.590;-122.498;2024-02-28T06:10:11;101263.98;;;7.69;75.15
50632;BME280;49583;45.590;-122.498;2024-02-28T06:12:23;101262.43;;;7.71;74.88
50632;BME280;49583;45.590;-122.498;2024-02-28T06:14:36;101257.11;;;7.72;75.31
50632;BME280;49583;45.590;-122.498;2024-02-28T06:16:51;101260.10;;;7.72;74.91
50632;BME280;49583;45.590;-122.498;2024-02-28T06:19:04;101255.64;;;7.72;74.68
50632;BME280;49583;45.590;-122.498;2024-02-28T06:21:17;101254.38;;;7.72;74.85
50632;BME280;49583;45.590;-122.498;2024-02-28T06:23:30;101253.55;;;7.72;75.00
50632;BME280;49583;45.590;-122.498;2024-02-28T06:25:43;101236.48;;;7.66;74.97
50632;BME280;49583;45.590;-122.498;2024-02-28T06:27:56;101247.14;;;7.72;74.73
50632;BME280;49583;45.590;-122.498;2024-02-28T06:30:11;101232.23;;;7.73;74.99
50632;BME280;49583;45.590;-122.498;2024-02-28T06:32:25;101234.70;;;7.75;75.07
50632;BME280;49583;45.590;-122.498;2024-02-28T06:34:38;101226.84;;;7.75;74.63
50632;BME280;49583;45.590;-122.498;2024-02-28T06:36:51;101229.85;;;7.76;74.59
50632;BME280;49583;45.590;-122.498;2024-02-28T06:39:04;101221.32;;;7.77;74.68
50632;BME280;49583;45.590;-122.498;2024-02-28T06:41:18;101218.24;;;7.78;74.82
50632;BME280;49583;45.590;-122.498;2024-02-28T06:43:32;101214.17;;;7.79;74.41
50632;BME280;49583;45.590;-122.498;2024-02-28T06:45:45;101216.00;;;7.80;74.58
50632;BME280;49583;45.590;-122.498;2024-02-28T06:47:58;101208.27;;;7.81;74.63
50632;BME280;49583;45.590;-122.498;2024-02-28T06:50:12;101212.17;;;7.82;74.07
50632;BME280;49583;45.590;-122.498;2024-02-28T06:52:25;101211.28;;;7.83;74.09
50632;BME280;49583;45.590;-122.498;2024-02-28T06:54:37;101210.41;;;7.85;74.21
50632;BME280;49583;45.590;-122.498;2024-02-28T06:56:50;101212.08;;;7.86;74.19
50632;BME280;49583;45.590;-122.498;2024-02-28T06:59:02;101201.60;;;7.86;74.37
50632;BME280;49583;45.590;-122.498;2024-02-28T07:01:18;101205.95;;;7.89;74.37
50632;BME280;49583;45.590;-122.498;2024-02-28T07:03:31;101206.54;;;7.87;74.04
50632;BME280;49583;45.590;-122.498;2024-02-28T07:05:44;101200.98;;;7.92;73.90
50632;BME280;49583;45.590;-122.498;2024-02-28T07:07:57;101205.40;;;7.94;74.03
50632;BME280;49583;45.590;-122.498;2024-02-28T07:10:10;101205.46;;;7.93;73.50
50632;BME280;49583;45.590;-122.498;2024-02-28T07:12:24;101192.19;;;7.94;73.37
50632;BME280;49583;45.590;-122.498;2024-02-28T07:14:36;101191.27;;;7.94;73.70
50632;BME280;49583;45.590;-122.498;2024-02-28T07:16:49;101189.34;;;7.95;73.01
50632;BME280;49583;45.590;-122.498;2024-02-28T07:19:03;101183.30;;;7.96;73.34
50632;BME280;49583;45.590;-122.498;2024-02-28T07:21:17;101188.52;;;7.96;73.04
50632;BME280;49583;45.590;-122.498;2024-02-28T07:23:30;101174.50;;;7.96;72.70
50632;BME280;49583;45.590;-122.498;2024-02-28T07:25:43;101175.30;;;7.99;72.69
50632;BME280;49583;45.590;-122.498;2024-02-28T07:27:59;101173.19;;;8.00;72.78
50632;BME280;49583;45.590;-122.498;2024-02-28T07:30:13;101177.00;;;8.02;72.37
50632;BME280;49583;45.590;-122.498;2024-02-28T07:32:27;101171.93;;;8.04;72.52
50632;BME280;49583;45.590;-122.498;2024-02-28T07:34:45;101172.54;;;8.06;72.55
50632;BME280;49583;45.590;-122.498;2024-02-28T07:36:57;101172.79;;;8.06;72.28
50632;BME280;49583;45.590;-122.498;2024-02-28T07:39:11;101168.36;;;8.07;72.23
50632;BME280;49583;45.590;-122.498;2024-02-28T07:41:23;101173.11;;;8.06;72.01
50632;BME280;49583;45.590;-122.498;2024-02-28T07:43:36;101172.09;;;8.08;71.47
50632;BME280;49583;45.590;-122.498;2024-02-28T07:45:49;101165.57;;;8.09;71.86
50632;BME280;49583;45.590;-122.498;2024-02-28T07:48:03;101162.96;;;8.10;71.79
50632;BME280;49583;45.590;-122.498;2024-02-28T07:50:16;101170.34;;;8.11;71.63
50632;BME280;49583;45.590;-122.498;2024-02-28T07:52:29;101170.58;;;8.13;71.32
50632;BME280;49583;45.590;-122.498;2024-02-28T07:54:46;101162.70;;;8.16;71.48
50632;BME280;49583;45.590;-122.498;2024-02-28T07:56:58;101153.88;;;8.17;71.36
50632;BME280;49583;45.590;-122.498;2024-02-28T07:59:11;101150.53;;;8.17;71.12
50632;BME280;49583;45.590;-122.498;2024-02-28T08:01:23;101145.98;;;8.18;71.39
50632;BME280;49583;45.590;-122.498;2024-02-28T08:03:37;101146.23;;;8.19;71.05
50632;BME280;49583;45.590;-122.498;2024-02-28T08:05:51;101138.50;;;8.18;71.24
50632;BME280;49583;45.590;-122.498;2024-02-28T08:08:04;101146.70;;;8.20;71.11
50632;BME280;49583;45.590;-122.498;2024-02-28T08:10:21;101140.30;;;8.21;70.93
50632;BME280;49583;45.590;-122.498;2024-02-28T08:12:34;101148.98;;;8.23;70.85
50632;BME280;49583;45.590;-122.498;2024-02-28T08:14:46;101131.89;;;8.25;71.08
50632;BME280;49583;45.590;-122.498;2024-02-28T08:16:59;101140.01;;;8.27;70.89
50632;BME280;49583;45.590;-122.498;2024-02-28T08:19:11;101142.15;;;8.28;70.79
50632;BME280;49583;45.590;-122.498;2024-02-28T08:21:24;101131.85;;;8.30;70.90
50632;BME280;49583;45.590;-122.498;2024-02-28T08:23:37;101128.63;;;8.31;70.44
50632;BME280;49583;45.590;-122.498;2024-02-28T08:25:49;101129.94;;;8.32;70.56
50632;BME280;49583;45.590;-122.498;2024-02-28T08:28:02;101134.49;;;8.33;70.52
50632;BME280;49583;45.590;-122.498;2024-02-28T08:30:17;101125.70;;;8.33;70.48
50632;BME280;49583;45.590;-122.498;2024-02-28T08:32:29;101120.78;;;8.33;70.65
50632;BME280;49583;45.590;-122.498;2024-02-28T08:34:45;101129.42;;;8.35;70.68
50632;BME280;49583;45.590;-122.498;2024-02-28T08:36:58;101121.63;;;8.34;70.76
50632;BME280;49583;45.590;-122.498;2024-02-28T08:39:11;101123.35;;;8.35;70.60
50632;BME280;49583;45.590;-122.498;2024-02-28T08:41:24;101122.51;;;8.35;70.39
50632;BME280;49583;45.590;-122.498;2024-02-28T08:43:39;101119.94;;;8.36;70.22
50632;BME280;49583;45.590;-122.498;2024-02-28T08:45:52;101123.80;;;8.37;70.19
50632;BME280;49583;45.590;-122.498;2024-02-28T08:48:06;101109.63;;;8.38;70.39
50632;BME280;49583;45.590;-122.498;2024-02-28T08:50:19;101103.85;;;8.39;70.53
50632;BME280;49583;45.590;-122.498;2024-02-28T08:52:32;101106.77;;;8.40;70.63
50632;BME280;49583;45.590;-122.498;2024-02-28T08:54:44;101098.90;;;8.40;70.34
50632;BME280;49583;45.590;-122.498;2024-02-28T08:56:57;101104.58;;;8.42;69.92
50632;BME280;49583;45.590;-122.498;2024-02-28T08:59:13;101102.92;;;8.44;70.29
50632;BME280;49583;45.590;-122.498;2024-02-28T09:04:27;101102.18;;;8.45;70.37
50632;BME280;49583;45.590;-122.498;2024-02-28T09:06:40;101100.51;;;8.46;70.03
50632;BME280;49583;45.590;-122.498;2024-02-28T09:08:52;101091.92;;;8.48;69.94
50632;BME280;49583;45.590;-122.498;2024-02-28T09:11:05;101095.48;;;8.49;69.99
50632;BME280;49583;45.590;-122.498;2024-02-28T09:13:18;101090.91;;;8.50;69.84
50632;BME280;49583;45.590;-122.498;2024-02-28T09:15:30;101084.80;;;8.52;69.89
50632;BME280;49583;45.590;-122.498;2024-02-28T09:17:45;101075.02;;;8.50;70.07
50632;BME280;49583;45.590;-122.498;2024-02-28T09:19:58;101074.50;;;8.52;70.24
50632;BME280;49583;45.590;-122.498;2024-02-28T09:22:11;101079.54;;;8.53;69.72
50632;BME280;49583;45.590;-122.498;2024-02-28T09:24:25;101080.75;;;8.54;69.44
50632;BME280;49583;45.590;-122.498;2024-02-28T09:26:41;101078.02;;;8.56;69.76
50632;BME280;49583;45.590;-122.498;2024-02-28T09:28:53;101070.56;;;8.57;69.77
50632;BME280;49583;45.590;-122.498;2024-02-28T09:31:09;101066.61;;;8.57;69.93
50632;BME280;49583;45.590;-122.498;2024-02-28T09:33:22;101063.65;;;8.57;69.90
50632;BME280;49583;45.590;-122.498;2024-02-28T09:35:35;101063.70;;;8.59;69.50
50632;BME280;49583;45.590;-122.498;2024-02-28T09:37:49;101059.90;;;8.59;70.02
50632;BME280;49583;45.590;-122.498;2024-02-28T09:40:02;101059.91;;;8.60;70.00
50632;BME280;49583;45.590;-122.498;2024-02-28T09:42:16;101057.98;;;8.61;69.85
50632;BME280;49583;45.590;-122.498;2024-02-28T09:44:29;101058.81;;;8.62;69.79
50632;BME280;49583;45.590;-122.498;2024-02-28T09:46:43;101058.93;;;8.63;70.15
50632;BME280;49583;45.590;-122.498;2024-02-28T09:48:57;101052.16;;;8.63;70.10
50632;BME280;49583;45.590;-122.498;2024-02-28T09:51:13;101052.86;;;8.63;70.12
50632;BME280;49583;45.590;-122.498;2024-02-28T09:53:26;101043.96;;;8.63;70.05
50632;BME280;49583;45.590;-122.498;2024-02-28T09:55:39;101050.09;;;8.64;69.97
50632;BME280;49583;45.590;-122.498;2024-02-28T09:57:52;101053.36;;;8.66;69.95
50632;BME280;49583;45.590;-122.498;2024-02-28T10:00:06;101064.85;;;8.67;69.59
50632;BME280;49583;45.590;-122.498;2024-02-28T10:02:20;101053.52;;;8.69;69.47
50632;BME280;49583;45.590;-122.498;2024-02-28T10:04:33;101043.35;;;8.72;69.52
50632;BME280;49583;45.590;-122.498;2024-02-28T10:06:46;101044.86;;;8.75;69.49
50632;BME280;49583;45.590;-122.498;2024-02-28T10:08:59;101035.73;;;8.76;69.75
50632;BME280;49583;45.590;-122.498;2024-02-28T10:11:12;101038.98;;;8.79;69.45
50632;BME280;49583;45.590;-122.498;2024-02-28T10:13:29;101035.36;;;8.80;69.62
50632;BME280;49583;45.590;-122.498;2024-02-28T10:15:41;101035.48;;;8.81;69.55
50632;BME280;49583;45.590;-122.498;2024-02-28T10:17:54;101036.05;;;8.83;69.54
50632;BME280;49583;45.590;-122.498;2024-02-28T10:20:09;101031.42;;;8.84;69.47
50632;BME280;49583;45.590;-122.498;2024-02-28T10:22:22;101035.02;;;8.84;69.41
50632;BME280;49583;45.590;-122.498;2024-02-28T10:24:35;101028.55;;;8.85;69.12
50632;BME280;49583;45.590;-122.498;2024-02-28T10:26:48;101030.90;;;8.85;69.51
50632;BME280;49583;45.590;-122.498;2024-02-28T10:29:06;101023.93;;;8.84;69.66
50632;BME280;49583;45.590;-122.498;2024-02-28T10:31:20;101021.11;;;8.84;69.40
50632;BME280;49583;45.590;-122.498;2024-02-28T10:33:34;101018.22;;;8.84;69.32
50632;BME280;49583;45.590;-122.498;2024-02-28T10:35:49;101019.50;;;8.85;69.35
50632;BME280;49583;45.590;-122.498;2024-02-28T10:38:03;101011.02;;;8.85;69.44
50632;BME280;49583;45.590;-122.498;2024-02-28T10:40:19;101017.19;;;8.85;69.40
50632;BME280;49583;45.590;-122.498;2024-02-28T10:42:36;101009.59;;;8.82;69.29
50632;BME280;49583;45.590;-122.498;2024-02-28T10:44:51;101004.44;;;8.87;69.40
50632;BME280;49583;45.590;-122.498;2024-02-28T10:47:24;101011.25;;;8.87;69.49
50632;BME280;49583;45.590;-122.498;2024-02-28T10:49:38;101006.11;;;8.87;69.42
50632;BME280;49583;45.590;-122.498;2024-02-28T10:51:51;101020.05;;;8.89;69.61
50632;BME280;49583;45.590;-122.498;2024-02-28T10:54:10;101009.98;;;8.89;69.32
50632;BME280;49583;45.590;-122.498;2024-02-28T10:56:24;101007.04;;;8.90;69.22
50632;BME280;49583;45.590;-122.498;2024-02-28T10:58:41;101006.13;;;8.91;69.32
50632;BME280;49583;45.590;-122.498;2024-02-28T11:00:55;101001.23;;;8.92;69.02
50632;BME280;49583;45.590;-122.498;2024-02-28T11:03:08;100996.38;;;8.91;69.57
50632;BME280;49583;45.590;-122.498;2024-02-28T11:05:22;100994.33;;;8.91;69.60
50632;BME280;49583;45.590;-122.498;2024-02-28T11:07:35;100998.46;;;8.93;69.32
50632;BME280;49583;45.590;-122.498;2024-02-28T11:09:48;100988.98;;;8.94;69.51
50632;BME280;49583;45.590;-122.498;2024-02-28T11:12:13;100987.71;;;8.94;69.55
50632;BME280;49583;45.590;-122.498;2024-02-28T11:14:36;100979.93;;;8.94;69.50
50632;BME280;49583;45.590;-122.498;2024-02-28T11:16:58;100985.39;;;8.94;69.72
50632;BME280;49583;45.590;-122.498;2024-02-28T11:19:21;100981.73;;;8.94;69.60
50632;BME280;49583;45.590;-122.498;2024-02-28T11:21:37;100984.30;;;8.94;69.62
50632;BME280;49583;45.590;-122.498;2024-02-28T11:23:51;100979.77;;;8.94;69.51
50632;BME280;49583;45.590;-122.498;2024-02-28T11:26:05;100976.18;;;8.94;69.66
50632;BME280;49583;45.590;-122.498;2024-02-28T11:28:18;100972.27;;;8.94;69.69
50632;BME280;49583;45.590;-122.498;2024-02-28T11:30:34;100975.62;;;8.96;69.84
50632;BME280;49583;45.590;-122.498;2024-02-28T11:32:47;100974.23;;;8.96;69.81